Terminal Aerodrome Forecast
Issued by NWS Louisville, KY

Home | Current Version | Previous Version | Text Only | Print | Product List | Glossary On
Versions: 1 2 3 4 5 6 7 8 9 10 11 12 13 14 15 16 17 18 19 20 21 22 23 24
000
FTUS43 KLMK 042000 AAA
TAFSDF
TAF AMD
KSDF 042005Z 0420/0524 36009KT 2SM -RAPL BR BKN012
     FM042100 36010KT 1SM -SNPL BR BKN009
     FM042200 36010KT 1/2SM SN FG BKN008
     FM050700 36009KT 1SM -SN BR BKN010
     FM051000 35008KT 5SM -SN BR BKN015
     FM051300 35007KT P6SM BKN025=

USA.gov is the U.S. government's official web portal to all federal, state and local government web resources and services.